sensor_id;sensor_type;location;lat;lon;timestamp;P1;durP1;ratioP1;P2;durP2;ratioP2
3677;SDS011;1855;50.934;6.958;2023-07-22T00:00:03;6.57;;;4.32;;
3677;SDS011;1855;50.934;6.958;2023-07-22T00:02:33;5.30;;;4.40;;
3677;SDS011;1855;50.934;6.958;2023-07-22T00:05:00;6.20;;;4.85;;
3677;SDS011;1855;50.934;6.958;2023-07-22T00:07:27;6.80;;;4.90;;
3677;SDS011;1855;50.934;6.958;2023-07-22T00:09:55;6.55;;;4.85;;
3677;SDS011;1855;50.934;6.958;2023-07-22T00:12:22;5.63;;;5.05;;
3677;SDS011;1855;50.934;6.958;2023-07-22T00:14:50;5.90;;;4.60;;
3677;SDS011;1855;50.934;6.958;2023-07-22T00:17:17;7.40;;;5.65;;
3677;SDS011;1855;50.934;6.958;2023-07-22T00:19:45;6.65;;;4.63;;
3677;SDS011;1855;50.934;6.958;2023-07-22T00:22:12;5.43;;;4.82;;
3677;SDS011;1855;50.934;6.958;2023-07-22T00:24:40;5.93;;;5.32;;
3677;SDS011;1855;50.934;6.958;2023-07-22T00:27:08;6.18;;;4.50;;
3677;SDS011;1855;50.934;6.958;2023-07-22T00:29:34;5.95;;;5.28;;
3677;SDS011;1855;50.934;6.958;2023-07-22T00:32:01;6.30;;;5.30;;
3677;SDS011;1855;50.934;6.958;2023-07-22T00:34:28;5.55;;;5.05;;
3677;SDS011;1855;50.934;6.958;2023-07-22T00:36:55;5.70;;;5.10;;
3677;SDS011;1855;50.934;6.958;2023-07-22T00:39:21;5.40;;;4.90;;
3677;SDS011;1855;50.934;6.958;2023-07-22T00:41:48;6.38;;;5.32;;
3677;SDS011;1855;50.934;6.958;2023-07-22T00:44:16;6.00;;;5.40;;
3677;SDS011;1855;50.934;6.958;2023-07-22T00:46:43;5.63;;;5.03;;
3677;SDS011;1855;50.934;6.958;2023-07-22T00:49:10;5.75;;;4.88;;
3677;SDS011;1855;50.934;6.958;2023-07-22T00:51:40;6.70;;;5.50;;
3677;SDS011;1855;50.934;6.958;2023-07-22T00:54:07;6.30;;;5.70;;
3677;SDS011;1855;50.934;6.958;2023-07-22T00:56:35;6.20;;;5.47;;
3677;SDS011;1855;50.934;6.958;2023-07-22T00:59:02;6.50;;;5.80;;
3677;SDS011;1855;50.934;6.958;2023-07-22T01:01:30;6.50;;;5.40;;
3677;SDS011;1855;50.934;6.958;2023-07-22T01:03:57;6.60;;;5.45;;
3677;SDS011;1855;50.934;6.958;2023-07-22T01:06:25;6.18;;;5.57;;
3677;SDS011;1855;50.934;6.958;2023-07-22T01:08:55;6.85;;;5.82;;
3677;SDS011;1855;50.934;6.958;2023-07-22T01:11:23;6.43;;;5.70;;
3677;SDS011;1855;50.934;6.958;2023-07-22T01:13:50;8.15;;;6.30;;
3677;SDS011;1855;50.934;6.958;2023-07-22T01:16:22;6.97;;;6.30;;
3677;SDS011;1855;50.934;6.958;2023-07-22T01:18:51;8.52;;;6.28;;
3677;SDS011;1855;50.934;6.958;2023-07-22T01:21:19;7.00;;;6.30;;
3677;SDS011;1855;50.934;6.958;2023-07-22T01:23:49;7.10;;;6.38;;
3677;SDS011;1855;50.934;6.958;2023-07-22T01:26:17;8.63;;;6.65;;
3677;SDS011;1855;50.934;6.958;2023-07-22T01:28:43;8.27;;;7.30;;
3677;SDS011;1855;50.934;6.958;2023-07-22T01:31:10;6.85;;;6.20;;
3677;SDS011;1855;50.934;6.958;2023-07-22T01:33:37;8.02;;;6.50;;
3677;SDS011;1855;50.934;6.958;2023-07-22T01:36:04;8.77;;;6.53;;
3677;SDS011;1855;50.934;6.958;2023-07-22T01:38:32;7.82;;;7.03;;
3677;SDS011;1855;50.934;6.958;2023-07-22T01:41:00;8.13;;;6.45;;
3677;SDS011;1855;50.934;6.958;2023-07-22T01:43:27;7.50;;;6.70;;
3677;SDS011;1855;50.934;6.958;2023-07-22T01:45:54;8.07;;;7.28;;
3677;SDS011;1855;50.934;6.958;2023-07-22T01:48:21;8.48;;;7.68;;
3677;SDS011;1855;50.934;6.958;2023-07-22T01:50:48;8.20;;;6.78;;
3677;SDS011;1855;50.934;6.958;2023-07-22T01:53:15;8.30;;;6.65;;
3677;SDS011;1855;50.934;6.958;2023-07-22T01:55:42;7.60;;;6.90;;
3677;SDS011;1855;50.934;6.958;2023-07-22T01:58:10;7.43;;;6.72;;
3677;SDS011;1855;50.934;6.958;2023-07-22T02:00:37;7.22;;;6.53;;
3677;SDS011;1855;50.934;6.958;2023-07-22T02:03:04;8.35;;;6.90;;
3677;SDS011;1855;50.934;6.958;2023-07-22T02:05:31;7.43;;;6.72;;
3677;SDS011;1855;50.934;6.958;2023-07-22T02:07:58;9.38;;;7.90;;
3677;SDS011;1855;50.934;6.958;2023-07-22T02:10:24;7.80;;;6.93;;
3677;SDS011;1855;50.934;6.958;2023-07-22T02:12:51;7.95;;;7.20;;
3677;SDS011;1855;50.934;6.958;2023-07-22T02:15:19;8.50;;;7.70;;
3677;SDS011;1855;50.934;6.958;2023-07-22T02:17:47;8.25;;;7.00;;
3677;SDS011;1855;50.934;6.958;2023-07-22T02:20:14;7.85;;;7.00;;
3677;SDS011;1855;50.934;6.958;2023-07-22T02:22:41;8.60;;;7.70;;
3677;SDS011;1855;50.934;6.958;2023-07-22T02:25:08;8.17;;;7.37;;
3677;SDS011;1855;50.934;6.958;2023-07-22T02:27:35;8.23;;;7.32;;
3677;SDS011;1855;50.934;6.958;2023-07-22T02:30:02;7.75;;;6.95;;
3677;SDS011;1855;50.934;6.958;2023-07-22T02:32:31;8.07;;;7.20;;
3677;SDS011;1855;50.934;6.958;2023-07-22T02:34:58;8.35;;;7.55;;
3677;SDS011;1855;50.934;6.958;2023-07-22T02:37:24;8.50;;;7.60;;
3677;SDS011;1855;50.934;6.958;2023-07-22T02:39:51;8.07;;;6.90;;
3677;SDS011;1855;50.934;6.958;2023-07-22T02:42:20;8.43;;;7.53;;
3677;SDS011;1855;50.934;6.958;2023-07-22T02:44:46;8.13;;;7.38;;
3677;SDS011;1855;50.934;6.958;2023-07-22T02:47:13;8.33;;;7.60;;
3677;SDS011;1855;50.934;6.958;2023-07-22T02:49:41;8.27;;;7.50;;
3677;SDS011;1855;50.934;6.958;2023-07-22T02:52:08;7.80;;;7.10;;
3677;SDS011;1855;50.934;6.958;2023-07-22T02:54:38;7.82;;;7.13;;
3677;SDS011;1855;50.934;6.958;2023-07-22T02:57:06;7.73;;;6.93;;
3677;SDS011;1855;50.934;6.958;2023-07-22T02:59:33;7.75;;;6.95;;
3677;SDS011;1855;50.934;6.958;2023-07-22T03:01:59;7.63;;;6.93;;
3677;SDS011;1855;50.934;6.958;2023-07-22T03:04:26;7.87;;;7.13;;
3677;SDS011;1855;50.934;6.958;2023-07-22T03:06:54;7.73;;;6.90;;
3677;SDS011;1855;50.934;6.958;2023-07-22T03:09:21;7.65;;;6.88;;
3677;SDS011;1855;50.934;6.958;2023-07-22T03:11:48;7.10;;;6.40;;
3677;SDS011;1855;50.934;6.958;2023-07-22T03:14:14;7.00;;;6.30;;
3677;SDS011;1855;50.934;6.958;2023-07-22T03:16:41;7.55;;;6.78;;
3677;SDS011;1855;50.934;6.958;2023-07-22T03:19:08;7.55;;;6.75;;
3677;SDS011;1855;50.934;6.958;2023-07-22T03:21:35;7.13;;;6.40;;
3677;SDS011;1855;50.934;6.958;2023-07-22T03:24:03;7.20;;;6.50;;
3677;SDS011;1855;50.934;6.958;2023-07-22T03:26:30;6.75;;;6.15;;
3677;SDS011;1855;50.934;6.958;2023-07-22T03:28:57;6.60;;;6.00;;
3677;SDS011;1855;50.934;6.958;2023-07-22T03:31:24;7.00;;;6.30;;
3677;SDS011;1855;50.934;6.958;2023-07-22T03:33:51;7.22;;;6.47;;
3677;SDS011;1855;50.934;6.958;2023-07-22T03:36:17;6.80;;;6.13;;
3677;SDS011;1855;50.934;6.958;2023-07-22T03:38:45;6.68;;;5.85;;
3677;SDS011;1855;50.934;6.958;2023-07-22T03:41:13;6.50;;;5.70;;
3677;SDS011;1855;50.934;6.958;2023-07-22T03:43:39;7.18;;;6.10;;
3677;SDS011;1855;50.934;6.958;2023-07-22T03:46:06;6.45;;;5.75;;
3677;SDS011;1855;50.934;6.958;2023-07-22T03:48:33;6.30;;;5.70;;
3677;SDS011;1855;50.934;6.958;2023-07-22T03:51:00;6.80;;;6.07;;
3677;SDS011;1855;50.934;6.958;2023-07-22T03:53:27;6.30;;;5.70;;
3677;SDS011;1855;50.934;6.958;2023-07-22T03:55:54;6.20;;;5.60;;
3677;SDS011;1855;50.934;6.958;2023-07-22T03:58:22;6.32;;;5.72;;
3677;SDS011;1855;50.934;6.958;2023-07-22T04:00:49;6.30;;;5.50;;
3677;SDS011;1855;50.934;6.958;2023-07-22T04:03:16;6.30;;;5.70;;
3677;SDS011;1855;50.934;6.958;2023-07-22T04:05:42;6.90;;;5.88;;
3677;SDS011;1855;50.934;6.958;2023-07-22T04:08:09;6.57;;;5.88;;
3677;SDS011;1855;50.934;6.958;2023-07-22T04:10:36;6.22;;;5.63;;
3677;SDS011;1855;50.934;6.958;2023-07-22T04:13:02;6.10;;;5.50;;
3677;SDS011;1855;50.934;6.958;2023-07-22T04:15:31;7.57;;;6.32;;
3677;SDS011;1855;50.934;6.958;2023-07-22T04:17:57;6.40;;;5.70;;
3677;SDS011;1855;50.934;6.958;2023-07-22T04:20:24;6.07;;;5.57;;
3677;SDS011;1855;50.934;6.958;2023-07-22T04:22:51;6.18;;;5.57;;
3677;SDS011;1855;50.934;6.958;2023-07-22T04:25:17;5.68;;;5.18;;
3677;SDS011;1855;50.934;6.958;2023-07-22T04:27:45;6.57;;;5.97;;
3677;SDS011;1855;50.934;6.958;2023-07-22T04:30:12;7.38;;;6.68;;
3677;SDS011;1855;50.934;6.958;2023-07-22T04:32:46;6.60;;;6.00;;
3677;SDS011;1855;50.934;6.958;2023-07-22T04:35:13;6.88;;;6.28;;
3677;SDS011;1855;50.934;6.958;2023-07-22T04:37:42;7.22;;;6.53;;
3677;SDS011;1855;50.934;6.958;2023-07-22T04:40:09;7.00;;;6.30;;
3677;SDS011;1855;50.934;6.958;2023-07-22T04:42:39;8.27;;;6.32;;
3677;SDS011;1855;50.934;6.958;2023-07-22T04:45:07;7.97;;;6.28;;
3677;SDS011;1855;50.934;6.958;2023-07-22T04:47:35;7.40;;;6.60;;
3677;SDS011;1855;50.934;6.958;2023-07-22T04:50:03;8.45;;;6.68;;
3677;SDS011;1855;50.934;6.958;2023-07-22T04:52:33;7.50;;;6.80;;
3677;SDS011;1855;50.934;6.958;2023-07-22T04:55:01;7.10;;;6.40;;
3677;SDS011;1855;50.934;6.958;2023-07-22T04:57:33;7.53;;;6.82;;
3677;SDS011;1855;50.934;6.958;2023-07-22T05:00:00;8.55;;;6.70;;
3677;SDS011;1855;50.934;6.958;2023-07-22T05:02:28;7.90;;;6.70;;
3677;SDS011;1855;50.934;6.958;2023-07-22T05:04:55;7.50;;;6.70;;
3677;SDS011;1855;50.934;6.958;2023-07-22T05:07:23;7.97;;;7.18;;
3677;SDS011;1855;50.934;6.958;2023-07-22T05:09:51;7.80;;;6.88;;
3677;SDS011;1855;50.934;6.958;2023-07-22T05:12:18;8.00;;;7.30;;
3677;SDS011;1855;50.934;6.958;2023-07-22T05:14:45;7.30;;;6.60;;
3677;SDS011;1855;50.934;6.958;2023-07-22T05:17:11;7.60;;;6.90;;
3677;SDS011;1855;50.934;6.958;2023-07-22T05:19:38;8.32;;;7.53;;
3677;SDS011;1855;50.934;6.958;2023-07-22T05:22:05;7.80;;;7.00;;
3677;SDS011;1855;50.934;6.958;2023-07-22T05:24:33;7.25;;;6.55;;
3677;SDS011;1855;50.934;6.958;2023-07-22T05:27:00;8.88;;;7.00;;
3677;SDS011;1855;50.934;6.958;2023-07-22T05:29:26;7.80;;;7.10;;
3677;SDS011;1855;50.934;6.958;2023-07-22T05:31:53;8.98;;;8.10;;
3677;SDS011;1855;50.934;6.958;2023-07-22T05:34:20;8.27;;;7.55;;
3677;SDS011;1855;50.934;6.958;2023-07-22T05:36:47;8.13;;;7.22;;
3677;SDS011;1855;50.934;6.958;2023-07-22T05:39:13;7.90;;;7.10;;
3677;SDS011;1855;50.934;6.958;2023-07-22T05:41:43;8.05;;;7.25;;
3677;SDS011;1855;50.934;6.958;2023-07-22T05:44:10;8.98;;;7.45;;
3677;SDS011;1855;50.934;6.958;2023-07-22T05:46:37;7.25;;;6.55;;
3677;SDS011;1855;50.934;6.958;2023-07-22T05:49:04;7.25;;;6.55;;
3677;SDS011;1855;50.934;6.958;2023-07-22T05:51:31;7.47;;;6.68;;
3677;SDS011;1855;50.934;6.958;2023-07-22T05:53:57;8.23;;;7.40;;
3677;SDS011;1855;50.934;6.958;2023-07-22T05:56:24;8.35;;;7.28;;
3677;SDS011;1855;50.934;6.958;2023-07-22T05:58:52;10.17;;;7.60;;
3677;SDS011;1855;50.934;6.958;2023-07-22T06:01:19;7.97;;;7.18;;
3677;SDS011;1855;50.934;6.958;2023-07-22T06:03:47;8.43;;;7.63;;
3677;SDS011;1855;50.934;6.958;2023-07-22T06:06:13;7.95;;;7.15;;
3677;SDS011;1855;50.934;6.958;2023-07-22T06:08:40;7.50;;;6.80;;
3677;SDS011;1855;50.934;6.958;2023-07-22T06:11:07;7.90;;;6.90;;
3677;SDS011;1855;50.934;6.958;2023-07-22T06:13:34;7.85;;;7.05;;
3677;SDS011;1855;50.934;6.958;2023-07-22T06:16:02;8.38;;;7.68;;
3677;SDS011;1855;50.934;6.958;2023-07-22T06:18:29;8.40;;;7.40;;
3677;SDS011;1855;50.934;6.958;2023-07-22T06:20:55;7.93;;;7.13;;
3677;SDS011;1855;50.934;6.958;2023-07-22T06:23:22;7.28;;;6.57;;
3677;SDS011;1855;50.934;6.958;2023-07-22T06:25:49;8.20;;;7.40;;
3677;SDS011;1855;50.934;6.958;2023-07-22T06:28:17;8.18;;;7.38;;
3677;SDS011;1855;50.934;6.958;2023-07-22T06:30:43;7.40;;;6.75;;
3677;SDS011;1855;50.934;6.958;2023-07-22T06:33:11;7.60;;;6.90;;
3677;SDS011;1855;50.934;6.958;2023-07-22T06:35:38;7.40;;;6.80;;
3677;SDS011;1855;50.934;6.958;2023-07-22T06:38:05;6.93;;;6.20;;
3677;SDS011;1855;50.934;6.958;2023-07-22T06:40:32;7.00;;;6.30;;
3677;SDS011;1855;50.934;6.958;2023-07-22T06:42:58;7.05;;;6.28;;
3677;SDS011;1855;50.934;6.958;2023-07-22T06:45:25;6.95;;;6.28;;
3677;SDS011;1855;50.934;6.958;2023-07-22T06:47:52;6.50;;;5.90;;
3677;SDS011;1855;50.934;6.958;2023-07-22T06:50:20;7.78;;;7.07;;
3677;SDS011;1855;50.934;6.958;2023-07-22T06:52:46;7.80;;;7.10;;
3677;SDS011;1855;50.934;6.958;2023-07-22T06:55:13;7.47;;;6.78;;
3677;SDS011;1855;50.934;6.958;2023-07-22T06:57:40;7.20;;;6.60;;
3677;SDS011;1855;50.934;6.958;2023-07-22T07:00:07;7.45;;;6.75;;
3677;SDS011;1855;50.934;6.958;2023-07-22T07:02:35;7.38;;;6.65;;
3677;SDS011;1855;50.934;6.958;2023-07-22T07:05:02;7.40;;;6.70;;
3677;SDS011;1855;50.934;6.958;2023-07-22T07:07:30;6.90;;;6.30;;
3677;SDS011;1855;50.934;6.958;2023-07-22T07:09:57;7.90;;;7.10;;
3677;SDS011;1855;50.934;6.958;2023-07-22T07:12:24;7.10;;;6.40;;
3677;SDS011;1855;50.934;6.958;2023-07-22T07:14:51;6.90;;;6.30;;
3677;SDS011;1855;50.934;6.958;2023-07-22T07:17:18;7.20;;;6.60;;
3677;SDS011;1855;50.934;6.958;2023-07-22T07:19:45;6.82;;;6.22;;
3677;SDS011;1855;50.934;6.958;2023-07-22T07:22:12;7.20;;;6.60;;
3677;SDS011;1855;50.934;6.958;2023-07-22T07:24:41;7.47;;;6.80;;
3677;SDS011;1855;50.934;6.958;2023-07-22T07:27:07;8.00;;;6.90;;
3677;SDS011;1855;50.934;6.958;2023-07-22T07:29:34;7.20;;;6.60;;
3677;SDS011;1855;50.934;6.958;2023-07-22T07:32:01;7.63;;;6.93;;
3677;SDS011;1855;50.934;6.958;2023-07-22T07:34:28;7.13;;;6.43;;
3677;SDS011;1855;50.934;6.958;2023-07-22T07:36:54;6.70;;;6.10;;
3677;SDS011;1855;50.934;6.958;2023-07-22T07:39:21;7.60;;;6.43;;
3677;SDS011;1855;50.934;6.958;2023-07-22T07:41:49;7.20;;;6.50;;
3677;SDS011;1855;50.934;6.958;2023-07-22T07:44:16;6.80;;;6.20;;
3677;SDS011;1855;50.934;6.958;2023-07-22T07:46:43;6.72;;;6.03;;
3677;SDS011;1855;50.934;6.958;2023-07-22T07:49:10;6.70;;;6.10;;
3677;SDS011;1855;50.934;6.958;2023-07-22T07:51:36;7.60;;;6.90;;
3677;SDS011;1855;50.934;6.958;2023-07-22T07:54:03;6.97;;;6.20;;
3677;SDS011;1855;50.934;6.958;2023-07-22T07:56:32;7.07;;;6.18;;
3677;SDS011;1855;50.934;6.958;2023-07-22T07:59:00;6.70;;;6.10;;
3677;SDS011;1855;50.934;6.958;2023-07-22T08:01:27;7.10;;;6.40;;
3677;SDS011;1855;50.934;6.958;2023-07-22T08:03:54;8.68;;;6.60;;
3677;SDS011;1855;50.934;6.958;2023-07-22T08:06:21;6.90;;;6.28;;
3677;SDS011;1855;50.934;6.958;2023-07-22T08:08:47;6.90;;;6.20;;
3677;SDS011;1855;50.934;6.958;2023-07-22T08:11:14;7.15;;;6.15;;
3677;SDS011;1855;50.934;6.958;2023-07-22T08:13:42;6.60;;;6.00;;
3677;SDS011;1855;50.934;6.958;2023-07-22T08:16:11;6.80;;;6.20;;
3677;SDS011;1855;50.934;6.958;2023-07-22T08:18:39;7.05;;;6.35;;
3677;SDS011;1855;50.934;6.958;2023-07-22T08:21:06;9.70;;;6.35;;
3677;SDS011;1855;50.934;6.958;2023-07-22T08:23:33;6.40;;;5.80;;
3677;SDS011;1855;50.934;6.958;2023-07-22T08:26:01;5.80;;;5.30;;
3677;SDS011;1855;50.934;6.958;2023-07-22T08:28:29;6.60;;;6.00;;
3677;SDS011;1855;50.934;6.958;2023-07-22T08:30:56;6.75;;;6.15;;
3677;SDS011;1855;50.934;6.958;2023-07-22T08:33:24;6.20;;;5.65;;
3677;SDS011;1855;50.934;6.958;2023-07-22T08:35:51;5.95;;;5.00;;
3677;SDS011;1855;50.934;6.958;2023-07-22T08:38:18;6.88;;;6.07;;
3677;SDS011;1855;50.934;6.958;2023-07-22T08:40:47;6.70;;;6.00;;
3677;SDS011;1855;50.934;6.958;2023-07-22T08:43:15;7.00;;;5.73;;
3677;SDS011;1855;50.934;6.958;2023-07-22T08:45:45;6.13;;;5.53;;
3677;SDS011;1855;50.934;6.958;2023-07-22T08:48:15;6.00;;;5.40;;
3677;SDS011;1855;50.934;6.958;2023-07-22T08:50:45;5.78;;;5.28;;
3677;SDS011;1855;50.934;6.958;2023-07-22T08:53:15;6.20;;;5.60;;
3677;SDS011;1855;50.934;6.958;2023-07-22T08:55:44;5.35;;;4.85;;
3677;SDS011;1855;50.934;6.958;2023-07-22T08:58:13;5.00;;;4.50;;
3677;SDS011;1855;50.934;6.958;2023-07-22T09:00:40;5.10;;;4.60;;
3677;SDS011;1855;50.934;6.958;2023-07-22T09:03:07;5.10;;;4.60;;
3677;SDS011;1855;50.934;6.958;2023-07-22T09:05:35;5.30;;;4.60;;
3677;SDS011;1855;50.934;6.958;2023-07-22T09:08:04;4.90;;;4.50;;
3677;SDS011;1855;50.934;6.958;2023-07-22T09:10:33;4.82;;;4.32;;
3677;SDS011;1855;50.934;6.958;2023-07-22T09:13:00;4.60;;;4.20;;
3677;SDS011;1855;50.934;6.958;2023-07-22T09:15:28;4.75;;;4.35;;
3677;SDS011;1855;50.934;6.958;2023-07-22T09:17:55;4.80;;;4.30;;
3677;SDS011;1855;50.934;6.958;2023-07-22T09:20:22;4.32;;;3.85;;
3677;SDS011;1855;50.934;6.958;2023-07-22T09:22:49;4.00;;;3.60;;
3677;SDS011;1855;50.934;6.958;2023-07-22T09:25:19;3.58;;;3.28;;
3677;SDS011;1855;50.934;6.958;2023-07-22T09:27:47;4.63;;;3.97;;
3677;SDS011;1855;50.934;6.958;2023-07-22T09:30:21;4.13;;;3.72;;
3677;SDS011;1855;50.934;6.958;2023-07-22T09:32:49;4.90;;;3.63;;
3677;SDS011;1855;50.934;6.958;2023-07-22T09:35:17;3.77;;;3.40;;
3677;SDS011;1855;50.934;6.958;2023-07-22T09:37:44;4.30;;;3.85;;
3677;SDS011;1855;50.934;6.958;2023-07-22T09:40:15;4.30;;;3.90;;
3677;SDS011;1855;50.934;6.958;2023-07-22T09:42:47;4.18;;;3.80;;
3677;SDS011;1855;50.934;6.958;2023-07-22T09:45:15;4.20;;;3.80;;
3677;SDS011;1855;50.934;6.958;2023-07-22T09:47:43;4.13;;;3.72;;
3677;SDS011;1855;50.934;6.958;2023-07-22T09:50:11;3.90;;;3.60;;
3677;SDS011;1855;50.934;6.958;2023-07-22T09:52:41;3.70;;;3.40;;
3677;SDS011;1855;50.934;6.958;2023-07-22T09:55:11;3.50;;;3.20;;
3677;SDS011;1855;50.934;6.958;2023-07-22T09:57:40;4.00;;;3.60;;
3677;SDS011;1855;50.934;6.958;2023-07-22T10:00:10;4.32;;;3.92;;
3677;SDS011;1855;50.934;6.958;2023-07-22T10:02:39;3.70;;;3.40;;
3677;SDS011;1855;50.934;6.958;2023-07-22T10:05:08;3.30;;;2.90;;
3677;SDS011;1855;50.934;6.958;2023-07-22T10:07:38;3.40;;;3.08;;
3677;SDS011;1855;50.934;6.958;2023-07-22T10:10:09;2.90;;;2.60;;
3677;SDS011;1855;50.934;6.958;2023-07-22T10:12:39;2.90;;;2.60;;
3677;SDS011;1855;50.934;6.958;2023-07-22T10:15:07;2.60;;;2.30;;
3677;SDS011;1855;50.934;6.958;2023-07-22T10:17:35;3.33;;;2.35;;
3677;SDS011;1855;50.934;6.958;2023-07-22T10:20:02;2.50;;;2.30;;
3677;SDS011;1855;50.934;6.958;2023-07-22T10:22:33;6.63;;;3.07;;
3677;SDS011;1855;50.934;6.958;2023-07-22T10:25:01;3.95;;;2.78;;
3677;SDS011;1855;50.934;6.958;2023-07-22T10:27:30;4.32;;;3.10;;
3677;SDS011;1855;50.934;6.958;2023-07-22T10:29:58;3.15;;;2.30;;
3677;SDS011;1855;50.934;6.958;2023-07-22T10:32:31;2.30;;;2.00;;
3677;SDS011;1855;50.934;6.958;2023-07-22T10:34:58;2.70;;;2.40;;
3677;SDS011;1855;50.934;6.958;2023-07-22T10:37:29;2.90;;;2.30;;
3677;SDS011;1855;50.934;6.958;2023-07-22T10:39:58;2.50;;;2.20;;
3677;SDS011;1855;50.934;6.958;2023-07-22T10:42:43;2.55;;;2.30;;
3677;SDS011;1855;50.934;6.958;2023-07-22T10:45:25;2.20;;;2.00;;
3677;SDS011;1855;50.934;6.958;2023-07-22T10:48:00;2.67;;;2.00;;
3677;SDS011;1855;50.934;6.958;2023-07-22T10:50:38;2.83;;;2.63;;
3677;SDS011;1855;50.934;6.958;2023-07-22T10:53:10;4.05;;;2.15;;
3677;SDS011;1855;50.934;6.958;2023-07-22T10:58:30;2.30;;;2.10;;
3677;SDS011;1855;50.934;6.958;2023-07-22T11:04:04;2.42;;;1.83;;
3677;SDS011;1855;50.934;6.958;2023-07-22T11:06:32;2.42;;;2.00;;
3677;SDS011;1855;50.934;6.958;2023-07-22T11:08:59;2.83;;;2.30;;
3677;SDS011;1855;50.934;6.958;2023-07-22T11:11:33;2.45;;;2.17;;
3677;SDS011;1855;50.934;6.958;2023-07-22T11:14:12;2.30;;;2.10;;
3677;SDS011;1855;50.934;6.958;2023-07-22T11:16:41;2.80;;;2.00;;
3677;SDS011;1855;50.934;6.958;2023-07-22T11:19:09;2.80;;;2.20;;
3677;SDS011;1855;50.934;6.958;2023-07-22T11:21:36;2.78;;;1.90;;
3677;SDS011;1855;50.934;6.958;2023-07-22T11:24:03;2.83;;;1.60;;
3677;SDS011;1855;50.934;6.958;2023-07-22T11:26:30;2.17;;;1.98;;
3677;SDS011;1855;50.934;6.958;2023-07-22T11:28:57;2.20;;;1.90;;
3677;SDS011;1855;50.934;6.958;2023-07-22T11:31:30;2.45;;;2.22;;
3677;SDS011;1855;50.934;6.958;2023-07-22T11:33:58;2.20;;;2.00;;
3677;SDS011;1855;50.934;6.958;2023-07-22T11:36:25;2.60;;;2.00;;
3677;SDS011;1855;50.934;6.958;2023-07-22T11:38:52;2.92;;;2.20;;
3677;SDS011;1855;50.934;6.958;2023-07-22T11:41:19;2.10;;;1.83;;
3677;SDS011;1855;50.934;6.958;2023-07-22T11:43:46;2.60;;;2.20;;
3677;SDS011;1855;50.934;6.958;2023-07-22T11:46:14;2.40;;;2.10;;
3677;SDS011;1855;50.934;6.958;2023-07-22T11:48:48;2.20;;;2.00;;
3677;SDS011;1855;50.934;6.958;2023-07-22T11:51:18;2.10;;;1.90;;
3677;SDS011;1855;50.934;6.958;2023-07-22T11:53:46;2.40;;;2.05;;
3677;SDS011;1855;50.934;6.958;2023-07-22T11:56:17;3.33;;;2.30;;
3677;SDS011;1855;50.934;6.958;2023-07-22T11:58:48;2.60;;;2.08;;
3677;SDS011;1855;50.934;6.958;2023-07-22T12:01:15;3.20;;;2.20;;
3677;SDS011;1855;50.934;6.958;2023-07-22T12:03:42;2.63;;;2.00;;
3677;SDS011;1855;50.934;6.958;2023-07-22T12:06:09;2.60;;;1.90;;
3677;SDS011;1855;50.934;6.958;2023-07-22T12:08:42;2.10;;;1.90;;
3677;SDS011;1855;50.934;6.958;2023-07-22T12:11:15;3.13;;;2.00;;
3677;SDS011;1855;50.934;6.958;2023-07-22T12:13:43;1.90;;;1.80;;
3677;SDS011;1855;50.934;6.958;2023-07-22T12:16:11;2.20;;;2.00;;
3677;SDS011;1855;50.934;6.958;2023-07-22T12:18:41;2.20;;;2.00;;
3677;SDS011;1855;50.934;6.958;2023-07-22T12:21:08;1.70;;;1.60;;
3677;SDS011;1855;50.934;6.958;2023-07-22T12:23:35;2.10;;;1.90;;
3677;SDS011;1855;50.934;6.958;2023-07-22T12:26:04;2.40;;;1.80;;
3677;SDS011;1855;50.934;6.958;2023-07-22T12:28:31;2.10;;;1.90;;
3677;SDS011;1855;50.934;6.958;2023-07-22T12:30:57;2.10;;;1.90;;
3677;SDS011;1855;50.934;6.958;2023-07-22T12:33:24;1.85;;;1.65;;
3677;SDS011;1855;50.934;6.958;2023-07-22T12:35:52;1.90;;;1.70;;
3677;SDS011;1855;50.934;6.958;2023-07-22T12:38:20;2.30;;;1.70;;
3677;SDS011;1855;50.934;6.958;2023-07-22T12:40:48;1.90;;;1.70;;
3677;SDS011;1855;50.934;6.958;2023-07-22T12:43:15;2.10;;;1.40;;
3677;SDS011;1855;50.934;6.958;2023-07-22T12:45:42;1.60;;;1.50;;
3677;SDS011;1855;50.934;6.958;2023-07-22T12:48:08;1.70;;;1.60;;
3677;SDS011;1855;50.934;6.958;2023-07-22T12:50:35;2.35;;;1.90;;
3677;SDS011;1855;50.934;6.958;2023-07-22T12:53:02;1.63;;;1.43;;
3677;SDS011;1855;50.934;6.958;2023-07-22T12:55:29;1.40;;;1.30;;
3677;SDS011;1855;50.934;6.958;2023-07-22T12:57:57;1.70;;;1.60;;
3677;SDS011;1855;50.934;6.958;2023-07-22T13:00:24;1.60;;;1.50;;
3677;SDS011;1855;50.934;6.958;2023-07-22T13:02:50;1.50;;;1.40;;
3677;SDS011;1855;50.934;6.958;2023-07-22T13:05:17;1.50;;;1.40;;
3677;SDS011;1855;50.934;6.958;2023-07-22T13:07:44;1.50;;;1.40;;
3677;SDS011;1855;50.934;6.958;2023-07-22T13:10:11;2.78;;;1.48;;
3677;SDS011;1855;50.934;6.958;2023-07-22T13:12:41;1.60;;;1.50;;
3677;SDS011;1855;50.934;6.958;2023-07-22T13:15:10;1.50;;;1.40;;
3677;SDS011;1855;50.934;6.958;2023-07-22T13:17:37;1.92;;;1.40;;
3677;SDS011;1855;50.934;6.958;2023-07-22T13:20:04;1.55;;;1.45;;
3677;SDS011;1855;50.934;6.958;2023-07-22T13:22:33;2.00;;;1.55;;
3677;SDS011;1855;50.934;6.958;2023-07-22T13:25:00;1.70;;;1.60;;
3677;SDS011;1855;50.934;6.958;2023-07-22T13:27:28;2.20;;;1.60;;
3677;SDS011;1855;50.934;6.958;2023-07-22T13:29:54;1.90;;;1.70;;
3677;SDS011;1855;50.934;6.958;2023-07-22T13:32:22;1.77;;;1.67;;
3677;SDS011;1855;50.934;6.958;2023-07-22T13:34:49;2.20;;;2.00;;
3677;SDS011;1855;50.934;6.958;2023-07-22T13:37:16;2.40;;;2.20;;
3677;SDS011;1855;50.934;6.958;2023-07-22T13:39:43;2.00;;;1.80;;
3677;SDS011;1855;50.934;6.958;2023-07-22T13:42:09;1.98;;;1.83;;
3677;SDS011;1855;50.934;6.958;2023-07-22T13:44:36;2.20;;;2.00;;
3677;SDS011;1855;50.934;6.958;2023-07-22T13:47:03;2.70;;;2.30;;
3677;SDS011;1855;50.934;6.958;2023-07-22T13:49:31;2.50;;;2.10;;
3677;SDS011;1855;50.934;6.958;2023-07-22T13:51:58;2.60;;;2.20;;
3677;SDS011;1855;50.934;6.958;2023-07-22T13:54:25;2.10;;;1.90;;
3677;SDS011;1855;50.934;6.958;2023-07-22T13:56:51;2.08;;;1.88;;
3677;SDS011;1855;50.934;6.958;2023-07-22T13:59:18;2.00;;;1.80;;
3677;SDS011;1855;50.934;6.958;2023-07-22T14:01:45;2.50;;;2.20;;
3677;SDS011;1855;50.934;6.958;2023-07-22T14:04:11;1.80;;;1.60;;
3677;SDS011;1855;50.934;6.958;2023-07-22T14:06:40;2.10;;;1.90;;
3677;SDS011;1855;50.934;6.958;2023-07-22T14:09:06;2.40;;;2.20;;
3677;SDS011;1855;50.934;6.958;2023-07-22T14:11:33;2.17;;;1.97;;
3677;SDS011;1855;50.934;6.958;2023-07-22T14:14:00;2.65;;;1.95;;
3677;SDS011;1855;50.934;6.958;2023-07-22T14:16:27;2.30;;;2.10;;
3677;SDS011;1855;50.934;6.958;2023-07-22T14:18:53;2.80;;;2.50;;
3677;SDS011;1855;50.934;6.958;2023-07-22T14:21:20;2.35;;;2.00;;
3677;SDS011;1855;50.934;6.958;2023-07-22T14:23:48;2.00;;;1.80;;
3677;SDS011;1855;50.934;6.958;2023-07-22T14:26:15;2.58;;;2.38;;
3677;SDS011;1855;50.934;6.958;2023-07-22T14:28:42;2.70;;;2.10;;
3677;SDS011;1855;50.934;6.958;2023-07-22T14:31:08;3.20;;;2.00;;
3677;SDS011;1855;50.934;6.958;2023-07-22T14:33:35;2.30;;;2.10;;
3677;SDS011;1855;50.934;6.958;2023-07-22T14:36:02;3.08;;;2.17;;
3677;SDS011;1855;50.934;6.958;2023-07-22T14:38:29;2.40;;;2.20;;
3677;SDS011;1855;50.934;6.958;2023-07-22T14:40:58;3.20;;;2.10;;
3677;SDS011;1855;50.934;6.958;2023-07-22T14:43:24;2.60;;;2.40;;
3677;SDS011;1855;50.934;6.958;2023-07-22T14:45:52;2.60;;;2.33;;
3677;SDS011;1855;50.934;6.958;2023-07-22T14:48:20;2.53;;;2.33;;
3677;SDS011;1855;50.934;6.958;2023-07-22T14:50:46;3.00;;;2.57;;
3677;SDS011;1855;50.934;6.958;2023-07-22T14:53:13;2.58;;;2.38;;
3677;SDS011;1855;50.934;6.958;2023-07-22T14:55:40;2.80;;;2.50;;
3677;SDS011;1855;50.934;6.958;2023-07-22T14:58:08;2.80;;;2.45;;
3677;SDS011;1855;50.934;6.958;2023-07-22T15:00:35;2.67;;;2.28;;
3677;SDS011;1855;50.934;6.958;2023-07-22T15:03:01;3.55;;;2.70;;
3677;SDS011;1855;50.934;6.958;2023-07-22T15:05:28;2.78;;;2.47;;
3677;SDS011;1855;50.934;6.958;2023-07-22T15:07:55;2.40;;;2.20;;
3677;SDS011;1855;50.934;6.958;2023-07-22T15:10:22;2.50;;;2.30;;
3677;SDS011;1855;50.934;6.958;2023-07-22T15:12:48;2.80;;;2.50;;
3677;SDS011;1855;50.934;6.958;2023-07-22T15:15:16;3.47;;;2.80;;
3677;SDS011;1855;50.934;6.958;2023-07-22T15:17:43;2.60;;;2.40;;
3677;SDS011;1855;50.934;6.958;2023-07-22T15:20:10;2.53;;;2.20;;
3677;SDS011;1855;50.934;6.958;2023-07-22T15:22:37;2.40;;;2.20;;